Time;durP1;ratioP1;P1;durP2;ratioP2;P2;SDS_P1;SDS_P2;PMS_P1;PMS_P2;Temp;Humidity;BMP_temperature;BMP_pressure;BME280_temperature;BME280_humidity;BME280_pressure;Samples;Min_cycle;Max_cycle;Signal;HPM_P1;HPM_P2
2021/10/02 00:46:47;;;;;;;4.13;1.75;;;;;;;-144.51;100.00;69251.94;5102368;28;20395;-63
2021/10/02 00:49:35;;;;;;;6.22;1.92;;;;;;;-144.51;100.00;69251.94;5098728;28;20035;-63
2021/10/02 00:52:21;;;;;;;6.88;1.88;;;;;;;-144.51;100.00;69251.94;5116709;28;20036;-62
2021/10/02 00:55:06;;;;;;;8.57;2.00;;;;;;;-144.51;100.00;69251.94;5102053;28;20040;-62
2021/10/02 00:57:51;;;;;;;6.93;2.00;;;;;;;-144.51;100.00;69251.94;5107621;28;20043;-62
2021/10/02 01:00:35;;;;;;;;;;;;;;;-144.51;100.00;69251.94;5115476;28;20039;-62
2021/10/02 01:03:46;;;;;;;5.97;2.60;;;;;;;-144.51;100.00;69251.94;5110036;28;19924;-62
2021/10/02 01:06:31;;;;;;;7.78;2.40;;;;;;;-144.51;100.00;69251.94;5108560;28;20032;-62
2021/10/02 01:09:27;;;;;;;7.30;2.78;;;;;;;-144.51;100.00;69251.94;5115485;28;20036;-62
2021/10/02 01:12:46;;;;;;;12.60;1.77;;;;;;;-144.51;100.00;69251.94;5121692;28;20036;-62
2021/10/02 01:16:11;;;;;;;3.50;2.10;;;;;;;-144.51;100.00;69251.94;5117857;28;20040;-62
2021/10/02 01:19:05;;;;;;;5.30;2.30;;;;;;;-144.51;100.00;69251.94;5117364;28;20048;-62
2021/10/02 01:22:17;;;;;;;3.10;1.70;;;;;;;-144.51;100.00;69251.94;5115450;28;20048;-62
2021/10/02 01:25:10;;;;;;;3.47;2.20;;;;;;;-144.51;100.00;69251.94;5102246;28;20044;-63
2021/10/02 01:28:20;;;;;;;6.00;2.20;;;;;;;-144.51;100.00;69251.94;5106179;28;20039;-63
2021/10/02 01:34:05;;;;;;;5.28;2.40;;;;;;;-144.51;100.00;69251.94;5107468;28;20036;-62
2021/10/02 01:49:09;;;;;;;2.58;2.00;;;;;;;-144.51;100.00;69251.94;5104762;28;20043;-63
2021/10/02 01:51:56;;;;;;;2.88;1.75;;;;;;;-144.51;100.00;69251.94;5121179;28;20040;-63
2021/10/02 01:54:43;;;;;;;5.55;1.83;;;;;;;-144.51;100.00;69251.94;5096513;28;20051;-62
2021/10/02 01:57:34;;;;;;;6.13;1.85;;;;;;;-144.51;100.00;69251.94;5104371;28;20043;-63
2021/10/02 02:00:19;;;;;;;3.22;1.88;;;;;;;-144.51;100.00;69251.94;5111374;27;20419;-63
2021/10/02 02:03:08;;;;;;;3.10;2.10;;;;;;;-144.51;100.00;69251.94;5099084;28;20036;-62
2021/10/02 02:05:55;;;;;;;3.00;1.80;;;;;;;-144.51;100.00;69251.94;5117815;27;20060;-63
2021/10/02 02:08:42;;;;;;;5.55;2.17;;;;;;;-144.51;100.00;69251.94;5098322;28;20036;-63
2021/10/02 02:11:29;;;;;;;5.47;3.03;;;;;;;-144.51;100.00;69251.94;5118577;27;20487;-62
2021/10/02 02:14:15;;;;;;;6.32;2.33;;;;;;;-144.51;100.00;69251.94;5107108;27;20058;-63
2021/10/02 02:17:01;;;;;;;5.63;2.30;;;;;;;-144.51;100.00;69251.94;5134227;27;20043;-62
2021/10/02 02:19:47;;;;;;;4.50;2.00;;;;;;;-144.51;100.00;69251.94;5103240;27;20565;-64
2021/10/02 02:22:33;;;;;;;8.13;2.58;;;;;;;-144.51;100.00;69251.94;5100180;28;20044;-62
2021/10/02 02:25:18;;;;;;;6.68;2.50;;;;;;;-144.51;100.00;69251.94;5118021;28;20044;-62
2021/10/02 02:28:06;;;;;;;4.68;1.50;;;;;;;-144.51;100.00;69251.94;5114110;28;20040;-63
2021/10/02 02:30:51;;;;;;;18.25;3.75;;;;;;;-144.51;100.00;69251.94;5118831;28;20043;-63
2021/10/02 02:33:38;;;;;;;8.88;2.20;;;;;;;-144.51;100.00;69251.94;5120568;28;20044;-63
2021/10/02 02:36:24;;;;;;;5.07;2.50;;;;;;;-144.51;100.00;69251.94;5124632;27;20035;-62
2021/10/02 02:39:08;;;;;;;6.03;2.28;;;;;;;-144.51;100.00;69251.94;5105528;28;20035;-62
2021/10/02 02:41:54;;;;;;;2.92;1.55;;;;;;;-144.51;100.00;69251.94;5125384;27;20039;-63
2021/10/02 02:44:39;;;;;;;4.18;1.98;;;;;;;-144.51;100.00;69251.94;5098361;28;20083;-62
2021/10/02 02:47:25;;;;;;;;;;;;;;;-144.51;100.00;69251.94;5124102;27;20040;-63
2021/10/02 02:50:23;;;;;;;;;;;;;;;-144.51;100.00;69251.94;5118134;27;19911;-63
2021/10/02 02:53:19;;;;;;;4.95;2.30;;;;;;;-144.51;100.00;69251.94;5124604;27;19911;-63
2021/10/02 02:56:24;;;;;;;4.88;2.25;;;;;;;-144.51;100.00;69251.94;5114996;27;20043;-62
2021/10/02 02:59:15;;;;;;;5.82;2.28;;;;;;;-144.51;100.00;69251.94;5111004;28;20039;-65
2021/10/02 03:02:03;;;;;;;40.17;10.10;;;;;;;-144.51;100.00;69251.94;5119915;27;20039;-65
2021/10/02 03:04:52;;;;;;;19.15;5.05;;;;;;;-144.51;100.00;69251.94;5120189;28;20035;-64
2021/10/02 03:07:48;;;;;;;16.27;4.53;;;;;;;-144.51;100.00;69251.94;5107111;28;20044;-66
2021/10/02 03:10:35;;;;;;;20.98;4.07;;;;;;;-144.51;100.00;69251.94;5109106;28;20036;-64
2021/10/02 03:13:23;;;;;;;17.85;3.60;;;;;;;-144.51;100.00;69251.94;5109972;28;20039;-65
2021/10/02 03:16:11;;;;;;;10.82;2.92;;;;;;;-144.51;100.00;69251.94;5118750;28;20036;-65
2021/10/02 03:19:01;;;;;;;6.43;2.92;;;;;;;-144.51;100.00;69251.94;5105078;28;20040;-65
2021/10/02 03:21:46;;;;;;;4.13;2.25;;;;;;;-144.51;100.00;69251.94;5112814;28;20036;-65
2021/10/02 03:24:32;;;;;;;5.88;2.10;;;;;;;-144.51;100.00;69251.94;5119633;28;20052;-65
2021/10/02 03:27:17;;;;;;;13.80;2.45;;;;;;;-144.51;100.00;69251.94;5118247;28;20035;-65
2021/10/02 03:30:02;;;;;;;7.28;2.60;;;;;;;-144.51;100.00;69251.94;5115193;28;20043;-65
2021/10/02 03:32:49;;;;;;;8.32;2.70;;;;;;;-144.51;100.00;69251.94;5116814;28;20036;-64
2021/10/02 03:35:34;;;;;;;5.22;2.00;;;;;;;-144.51;100.00;69251.94;5119568;28;20039;-64
2021/10/02 03:38:19;;;;;;;4.15;1.98;;;;;;;-144.51;100.00;69251.94;5114450;28;20036;-65
2021/10/02 03:41:05;;;;;;;14.68;2.83;;;;;;;-144.51;100.00;69251.94;5119264;28;20048;-65
2021/10/02 03:43:50;;;;;;;5.45;2.80;;;;;;;-144.51;100.00;69251.94;5119404;28;20062;-65
2021/10/02 03:46:34;;;;;;;;;;;;;;;-144.51;100.00;69251.94;5119695;28;20039;-65
2021/10/02 03:49:19;;;;;;;5.13;2.60;;;;;;;-144.51;100.00;69251.94;5098748;28;19911;-64
2021/10/02 03:52:04;;;;;;;;;;;;;;;-144.51;100.00;69251.94;5104178;28;20390;-65
2021/10/02 03:54:48;;;;;;;7.97;2.20;;;;;;;-144.51;100.00;69251.94;5115178;28;19912;-65
2021/10/02 03:57:33;;;;;;;;;;;;;;;-144.51;100.00;69251.94;5099858;28;20039;-65
2021/10/02 04:00:21;;;;;;;6.75;1.83;;;;;;;-144.51;100.00;69251.94;5117064;28;19911;-64
2021/10/02 04:03:05;;;;;;;3.08;2.08;;;;;;;-144.51;100.00;69251.94;5120039;28;20035;-65
2021/10/02 04:05:50;;;;;;;5.13;2.83;;;;;;;-144.51;100.00;69251.94;5119538;28;20419;-64
2021/10/02 04:08:35;;;;;;;4.22;2.20;;;;;;;-144.51;100.00;69251.94;5110402;28;20036;-64
2021/10/02 04:11:20;;;;;;;;;;;;;;;-144.51;100.00;69251.94;5114831;28;20040;-64
2021/10/02 04:14:04;;;;;;;3.90;2.28;;;;;;;-144.51;100.00;69251.94;5117590;28;19912;-65
2021/10/02 04:16:49;;;;;;;3.15;2.33;;;;;;;-144.51;100.00;69251.94;5115371;28;20047;-65
2021/10/02 04:19:34;;;;;;;3.22;2.47;;;;;;;-144.51;100.00;69251.94;5111913;28;20031;-64
2021/10/02 04:22:19;;;;;;;10.40;2.17;;;;;;;-144.51;100.00;69251.94;5114331;28;20035;-64
2021/10/02 04:25:04;;;;;;;;;;;;;;;-144.51;100.00;69251.94;5112434;28;20048;-65
2021/10/02 04:27:49;;;;;;;10.55;1.95;;;;;;;-144.51;100.00;69251.94;5109923;28;20379;-64
2021/10/02 04:30:33;;;;;;;;;;;;;;;-144.51;100.00;69251.94;5122130;28;20039;-65
2021/10/02 04:33:19;;;;;;;8.15;2.40;;;;;;;-144.51;100.00;69251.94;5117441;28;19912;-64
2021/10/02 04:36:04;;;;;;;7.18;2.40;;;;;;;-144.51;100.00;69251.94;5122724;28;20039;-64
2021/10/02 04:38:48;;;;;;;3.30;1.75;;;;;;;-144.51;100.00;69251.94;5109578;28;20406;-65
2021/10/02 04:41:33;;;;;;;4.20;2.60;;;;;;;-144.51;100.00;69251.94;5119931;28;20039;-64
2021/10/02 04:44:19;;;;;;;3.88;2.97;;;;;;;-144.51;100.00;69251.94;5121345;28;20040;-65
2021/10/02 04:47:03;;;;;;;4.10;2.20;;;;;;;-144.51;100.00;69251.94;5119219;28;20043;-64
2021/10/02 04:49:49;;;;;;;;;;;;;;;-144.51;100.00;69251.94;5114494;28;20039;-64
2021/10/02 04:52:33;;;;;;;5.78;1.88;;;;;;;-144.51;100.00;69251.94;5113600;28;19912;-64
2021/10/02 04:55:18;;;;;;;;;;;;;;;-144.51;100.00;69251.94;5122807;28;20031;-64
2021/10/02 04:58:03;;;;;;;10.45;2.50;;;;;;;-144.51;100.00;69251.94;5120728;28;20307;-64
2021/10/02 05:00:48;;;;;;;5.93;2.60;;;;;;;-144.51;100.00;69251.94;5117139;28;20039;-64
2021/10/02 05:03:34;;;;;;;4.78;2.20;;;;;;;-144.51;100.00;69251.94;5117524;28;20043;-64
2021/10/02 05:06:19;;;;;;;5.72;2.75;;;;;;;-144.51;100.00;69251.94;5122057;28;20043;-65
2021/10/02 05:09:04;;;;;;;;;;;;;;;-144.51;100.00;69251.94;5115928;28;20039;-64
2021/10/02 05:11:48;;;;;;;9.00;3.45;;;;;;;-144.51;100.00;69251.94;5121797;28;20287;-64
2021/10/02 05:14:33;;;;;;;;;;;;;;;-144.51;100.00;69251.94;5109452;28;20499;-63
2021/10/02 05:17:18;;;;;;;43.95;17.20;;;;;;;-144.51;100.00;69251.94;5111809;28;19960;-64
2021/10/02 05:20:03;;;;;;;;;;;;;;;-144.51;100.00;69251.94;5117194;28;20496;-64
2021/10/02 05:22:48;;;;;;;10.30;4.60;;;;;;;-144.51;100.00;69251.94;5115331;28;20388;-64
2021/10/02 05:25:33;;;;;;;;;;;;;;;-144.51;100.00;69251.94;5115533;28;20483;-64
2021/10/02 05:28:17;;;;;;;11.35;4.60;;;;;;;-144.51;100.00;69251.94;5106192;28;19911;-64
2021/10/02 05:31:02;;;;;;;9.30;4.65;;;;;;;-144.51;100.00;69251.94;5112964;28;20036;-65
2021/10/02 05:33:47;;;;;;;;;;;;;;;-144.51;100.00;69251.94;5121873;28;20032;-64
2021/10/02 05:36:32;;;;;;;8.80;3.65;;;;;;;-144.51;100.00;69251.94;5107047;28;19912;-64
2021/10/02 05:39:17;;;;;;;;;;;;;;;-144.51;100.00;69251.94;5109704;28;20036;-64
2021/10/02 05:42:02;;;;;;;4.53;3.40;;;;;;;-144.51;100.00;69251.94;5112814;28;19915;-65
2021/10/02 05:44:47;;;;;;;10.70;3.45;;;;;;;-144.51;100.00;69251.94;5120266;28;20044;-64
2021/10/02 05:47:33;;;;;;;10.80;4.53;;;;;;;-144.51;100.00;69251.94;5113991;28;20035;-64
2021/10/02 05:50:18;;;;;;;6.55;3.25;;;;;;;-144.51;100.00;69251.94;5104495;27;20040;-65
2021/10/02 05:53:03;;;;;;;;;;;;;;;-144.51;100.00;69251.94;5114626;28;20044;-64
2021/10/02 05:55:47;;;;;;;13.85;4.88;;;;;;;-144.51;100.00;69251.94;5105660;28;19911;-64
2021/10/02 05:58:32;;;;;;;;;;;;;;;-144.51;100.00;69251.94;5118085;28;20059;-64
2021/10/02 06:01:18;;;;;;;8.95;3.47;;;;;;;-144.51;100.00;69251.94;5102993;28;19912;-64
2021/10/02 06:04:03;;;;;;;5.90;3.47;;;;;;;-144.51;100.00;69251.94;5113033;28;20036;-64
2021/10/02 06:06:47;;;;;;;5.45;3.40;;;;;;;-144.51;100.00;69251.94;5101052;27;20040;-64
2021/10/02 06:09:32;;;;;;;10.50;4.32;;;;;;;-144.51;100.00;69251.94;5094923;28;20404;-65
2021/10/02 06:12:20;;;;;;;4.82;2.35;;;;;;;-144.51;100.00;69251.94;5115488;28;20039;-64
2021/10/02 06:15:05;;;;;;;6.03;3.70;;;;;;;-144.51;100.00;69251.94;5117371;28;20040;-64
2021/10/02 06:17:51;;;;;;;18.90;3.22;;;;;;;-144.51;100.00;69251.94;5109761;28;20036;-64
2021/10/02 06:20:36;;;;;;;8.45;2.70;;;;;;;-144.51;100.00;69251.94;5113329;28;20043;-64
2021/10/02 06:23:22;;;;;;;4.78;2.40;;;;;;;-144.51;100.00;69251.94;5109735;28;20049;-64
2021/10/02 06:26:07;;;;;;;9.52;2.97;;;;;;;-144.51;100.00;69251.94;5110456;27;20035;-64
2021/10/02 06:28:52;;;;;;;3.72;1.90;;;;;;;-144.51;100.00;69251.94;5106774;28;20040;-64
2021/10/02 06:31:37;;;;;;;3.22;2.00;;;;;;;-144.51;100.00;69251.94;5108129;28;20040;-64
2021/10/02 06:34:22;;;;;;;7.63;2.40;;;;;;;-144.51;100.00;69251.94;5102770;28;20044;-64
2021/10/02 06:37:07;;;;;;;24.63;3.80;;;;;;;-144.51;100.00;69251.94;5109096;28;20036;-64
2021/10/02 06:39:52;;;;;;;;;;;;;;;-144.51;100.00;69251.94;5105691;28;20047;-64
2021/10/02 06:42:36;;;;;;;63.92;12.98;;;;;;;-144.51;100.00;69251.94;5114985;28;19916;-64
2021/10/02 06:45:21;;;;;;;;;;;;;;;-144.51;100.00;69251.94;5113193;28;20043;-65
2021/10/02 06:48:06;;;;;;;14.95;5.22;;;;;;;-144.51;100.00;69251.94;5116113;28;19912;-64
2021/10/02 06:50:51;;;;;;;11.63;2.95;;;;;;;-144.51;100.00;69251.94;5113653;28;20051;-64
2021/10/02 06:53:36;;;;;;;8.52;2.40;;;;;;;-144.51;100.00;69251.94;5102629;27;20483;-64
2021/10/02 06:56:21;;;;;;;11.45;3.42;;;;;;;-144.51;100.00;69251.94;5114545;28;20057;-64
2021/10/02 06:59:06;;;;;;;;;;;;;;;-144.51;100.00;69251.94;5115394;28;20036;-64
2021/10/02 07:01:51;;;;;;;73.88;8.23;;;;;;;-144.51;100.00;69251.94;5110219;28;19916;-64
2021/10/02 07:04:36;;;;;;;47.35;5.60;;;;;;;-144.51;100.00;69251.94;5112346;28;20039;-64
2021/10/02 07:07:20;;;;;;;;;;;;;;;-144.51;100.00;69251.94;5111588;28;20039;-66
2021/10/02 07:10:06;;;;;;;34.05;4.40;;;;;;;-144.51;100.00;69251.94;5113374;28;19911;-64
2021/10/02 07:12:52;;;;;;;25.00;4.93;;;;;;;-144.51;100.00;69251.94;5112966;28;20043;-64
2021/10/02 07:15:36;;;;;;;14.57;4.20;;;;;;;-144.51;100.00;69251.94;5113853;28;20044;-65
2021/10/02 07:18:21;;;;;;;;;;;;;;;-144.51;100.00;69251.94;5113342;28;20036;-64
2021/10/02 07:21:06;;;;;;;13.32;3.38;;;;;;;-144.51;100.00;69251.94;5110544;28;19911;-64
2021/10/02 07:23:50;;;;;;;;;;;;;;;-144.51;100.00;69251.94;5116348;28;20047;-64
2021/10/02 07:26:35;;;;;;;13.00;3.97;;;;;;;-144.51;100.00;69251.94;5115061;28;19920;-66
2021/10/02 07:29:20;;;;;;;13.18;3.28;;;;;;;-144.51;100.00;69251.94;5111916;28;20036;-65
2021/10/02 07:32:05;;;;;;;14.50;4.60;;;;;;;-144.51;100.00;69251.94;5112411;28;20480;-64
2021/10/02 07:34:50;;;;;;;12.15;4.10;;;;;;;-144.51;100.00;69251.94;5110069;28;20040;-64
2021/10/02 07:37:36;;;;;;;19.38;3.97;;;;;;;-144.51;100.00;69251.94;5117313;28;20483;-64
2021/10/02 07:40:21;;;;;;;13.07;4.57;;;;;;;-144.51;100.00;69251.94;5110484;28;20032;-64
2021/10/02 07:43:05;;;;;;;;;;;;;;;-144.51;100.00;69251.94;5114464;28;20036;-66
2021/10/02 07:45:50;;;;;;;12.55;4.22;;;;;;;-144.51;100.00;69251.94;5114126;28;20382;-72
2021/10/02 07:48:38;;;;;;;17.23;5.88;;;;;;;-144.51;100.00;69251.94;5112713;28;20040;-66
2021/10/02 07:51:24;;;;;;;12.18;5.90;;;;;;;-144.51;100.00;69251.94;5112689;28;20043;-66
2021/10/02 07:54:09;;;;;;;8.80;5.30;;;;;;;-144.51;100.00;69251.94;5107152;28;20031;-69
2021/10/02 07:56:54;;;;;;;;;;;;;;;-144.51;100.00;69251.94;5114423;28;20044;-68
2021/10/02 07:59:39;;;;;;;26.23;6.82;;;;;;;-144.51;100.00;69251.94;5112825;28;19912;-67
2021/10/02 08:02:24;;;;;;;16.60;5.68;;;;;;;-144.51;100.00;69251.94;5118068;28;20043;-67
2021/10/02 08:05:10;;;;;;;12.70;5.40;;;;;;;-144.51;100.00;69251.94;5118015;28;20406;-68
2021/10/02 08:07:55;;;;;;;12.40;5.00;;;;;;;-144.51;100.00;69251.94;5115259;28;20499;-67
2021/10/02 08:10:40;;;;;;;11.75;5.45;;;;;;;-144.51;100.00;69251.94;5114506;28;20044;-67
2021/10/02 08:13:24;;;;;;;10.60;4.85;;;;;;;-144.51;100.00;69251.94;5116380;28;20301;-67
2021/10/02 08:16:14;;;;;;;9.25;4.95;;;;;;;-144.51;100.00;69251.94;5113986;28;20043;-67
2021/10/02 08:19:00;;;;;;;31.55;5.60;;;;;;;-144.51;100.00;69251.94;5113512;28;20407;-67
2021/10/02 08:21:48;;;;;;;14.35;5.10;;;;;;;-144.51;100.00;69251.94;5114099;28;20039;-67
2021/10/02 08:24:33;;;;;;;9.23;4.55;;;;;;;-144.51;100.00;69251.94;5115907;28;20398;-67
2021/10/02 08:27:22;;;;;;;9.55;4.78;;;;;;;-144.51;100.00;69251.94;5116526;28;20040;-67
2021/10/02 08:30:08;;;;;;;23.20;5.68;;;;;;;-144.51;100.00;69251.94;5115435;28;20035;-67
2021/10/02 08:32:54;;;;;;;8.43;4.63;;;;;;;-144.51;100.00;69251.94;5115037;28;20039;-67
2021/10/02 08:35:40;;;;;;;12.07;4.38;;;;;;;-144.51;100.00;69251.94;5114836;28;20039;-67
2021/10/02 08:38:24;;;;;;;13.18;5.35;;;;;;;-144.51;100.00;69251.94;5115177;28;20036;-67
2021/10/02 08:41:09;;;;;;;;;;;;;;;-144.51;100.00;69251.94;5120255;28;20040;-70
2021/10/02 08:43:55;;;;;;;13.20;4.53;;;;;;;-144.51;100.00;69251.94;5097925;28;19920;-70
2021/10/02 08:46:40;;;;;;;7.85;4.47;;;;;;;-144.51;100.00;69251.94;5106645;28;20027;-67
2021/10/02 08:49:31;;;;;;;10.88;6.10;;;;;;;-144.51;100.00;69251.94;5115100;28;20039;-66
2021/10/02 08:52:19;;;;;;;17.20;4.57;;;;;;;-144.51;100.00;69251.94;5118212;28;20411;-66
2021/10/02 08:55:05;;;;;;;14.70;4.82;;;;;;;-144.51;100.00;69251.94;5114806;28;20035;-66
2021/10/02 08:57:51;;;;;;;14.55;5.00;;;;;;;-144.51;100.00;69251.94;5119876;28;20411;-66
2021/10/02 09:00:39;;;;;;;10.50;4.65;;;;;;;-144.51;100.00;69251.94;5115761;28;20039;-67
2021/10/02 09:03:23;;;;;;;11.55;4.93;;;;;;;-144.51;100.00;69251.94;5114855;28;20035;-66
2021/10/02 09:06:08;;;;;;;15.30;5.15;;;;;;;-144.51;100.00;69251.94;5113522;28;20040;-67
2021/10/02 09:08:54;;;;;;;19.77;6.80;;;;;;;-144.51;100.00;69251.94;5117043;28;20300;-67
2021/10/02 09:11:38;;;;;;;;;;;;;;;-144.51;100.00;69251.94;5113486;28;20031;-66
2021/10/02 09:14:23;;;;;;;15.77;5.05;;;;;;;-144.51;100.00;69251.94;5118100;28;19912;-67
2021/10/02 09:17:08;;;;;;;12.63;5.25;;;;;;;-144.51;100.00;69251.94;5114663;28;20649;-67
2021/10/02 09:19:53;;;;;;;6.82;4.68;;;;;;;-144.51;100.00;69251.94;5114474;28;20040;-66
2021/10/02 09:22:39;;;;;;;10.52;4.90;;;;;;;-144.51;100.00;69251.94;5111874;28;20212;-66
2021/10/02 09:25:26;;;;;;;12.43;4.55;;;;;;;-144.51;100.00;69251.94;5113231;28;20035;-66
2021/10/02 09:28:13;;;;;;;17.70;5.03;;;;;;;-144.51;100.00;69251.94;5116268;28;20039;-66
2021/10/02 09:31:05;;;;;;;8.30;5.47;;;;;;;-144.51;100.00;69251.94;5112212;28;20036;-66
2021/10/02 09:33:50;;;;;;;13.00;5.18;;;;;;;-144.51;100.00;69251.94;5118300;28;20039;-65
2021/10/02 09:36:44;;;;;;;6.85;4.07;;;;;;;-144.51;100.00;69251.94;5117255;28;20043;-66
2021/10/02 09:39:43;;;;;;;9.82;4.25;;;;;;;-144.51;100.00;69251.94;5109668;28;20031;-65
2021/10/02 09:42:29;;;;;;;7.05;4.88;;;;;;;-144.51;100.00;69251.94;5116404;28;20407;-66
2021/10/02 09:45:17;;;;;;;11.35;5.70;;;;;;;-144.51;100.00;69251.94;5115556;28;20035;-66
2021/10/02 09:48:06;;;;;;;9.75;5.63;;;;;;;-144.51;100.00;69251.94;5108774;28;20048;-66
2021/10/02 09:50:51;;;;;;;7.60;4.88;;;;;;;-144.51;100.00;69251.94;5116691;28;20044;-66
2021/10/02 09:53:42;;;;;;;10.18;4.85;;;;;;;-144.51;100.00;69251.94;5115641;28;20399;-65
2021/10/02 09:56:26;;;;;;;8.80;5.00;;;;;;;-144.51;100.00;69251.94;5118147;28;20040;-66
2021/10/02 09:59:23;;;;;;;11.38;5.88;;;;;;;-144.51;100.00;69251.94;5112797;28;20040;-66
2021/10/02 10:02:13;;;;;;;6.25;3.30;;;;;;;-144.51;100.00;69251.94;5114646;28;20043;-65
2021/10/02 10:04:58;;;;;;;10.80;3.78;;;;;;;-144.51;100.00;69251.94;5113113;28;20031;-65
2021/10/02 10:07:55;;;;;;;13.93;5.28;;;;;;;-144.51;100.00;69251.94;5109412;28;20052;-63
2021/10/02 10:10:42;;;;;;;10.52;4.28;;;;;;;-144.51;100.00;69251.94;5108988;28;20039;-66
2021/10/02 10:13:26;;;;;;;9.57;5.13;;;;;;;-144.51;100.00;69251.94;5113230;28;20077;-66
2021/10/02 10:16:11;;;;;;;7.97;3.95;;;;;;;-144.51;100.00;69251.94;5115646;28;20040;-66
2021/10/02 10:19:14;;;;;;;8.70;4.65;;;;;;;-144.51;100.00;69251.94;5112348;28;20035;-67
2021/10/02 10:22:09;;;;;;;7.68;3.92;;;;;;;-144.51;100.00;69251.94;5110422;27;20455;-66
2021/10/02 10:24:57;;;;;;;8.15;4.03;;;;;;;-144.51;100.00;69251.94;5114537;28;20032;-65
2021/10/02 10:27:45;;;;;;;10.82;4.57;;;;;;;-144.51;100.00;69251.94;5114345;28;20047;-68
2021/10/02 10:30:29;;;;;;;8.90;5.07;;;;;;;-144.51;100.00;69251.94;5107222;28;20039;-68
2021/10/02 10:33:17;;;;;;;10.27;5.07;;;;;;;-144.51;100.00;69251.94;5117587;28;20040;-67
2021/10/02 10:36:02;;;;;;;4.88;3.50;;;;;;;-144.51;100.00;69251.94;5115648;28;20039;-67
2021/10/02 10:38:49;;;;;;;5.53;3.05;;;;;;;-144.51;100.00;69251.94;5111846;28;20044;-68
2021/10/02 10:41:34;;;;;;;10.52;4.05;;;;;;;-144.51;100.00;69251.94;5111253;28;20043;-68
2021/10/02 10:44:19;;;;;;;5.68;4.00;;;;;;;-144.51;100.00;69251.94;5113493;28;20035;-66
2021/10/02 10:47:05;;;;;;;5.70;4.05;;;;;;;-144.51;100.00;69251.94;5117804;28;20036;-66
2021/10/02 10:49:50;;;;;;;9.82;4.60;;;;;;;-144.51;100.00;69251.94;5111253;28;20044;-65
2021/10/02 10:52:40;;;;;;;4.63;3.47;;;;;;;-144.51;100.00;69251.94;5115366;28;20039;-66
2021/10/02 10:55:25;;;;;;;9.63;3.75;;;;;;;-144.51;100.00;69251.94;5112322;28;20024;-66
2021/10/02 10:58:21;;;;;;;12.05;4.13;;;;;;;-144.51;100.00;69251.94;5116583;28;20043;-66
2021/10/02 11:01:10;;;;;;;17.27;4.05;;;;;;;-144.51;100.00;69251.94;5104156;28;20402;-65
2021/10/02 11:03:55;;;;;;;11.30;4.28;;;;;;;-144.51;100.00;69251.94;5112666;28;20059;-64
2021/10/02 11:06:55;;;;;;;13.98;5.38;;;;;;;-144.51;100.00;69251.94;5114561;28;20434;-65
2021/10/02 11:09:44;;;;;;;23.02;4.05;;;;;;;-144.51;100.00;69251.94;5111177;28;20047;-65
2021/10/02 11:12:53;;;;;;;8.32;3.42;;;;;;;-144.51;100.00;69251.94;5114809;28;20036;-65
2021/10/02 11:15:39;;;;;;;8.13;3.92;;;;;;;-144.51;100.00;69251.94;5114464;28;20384;-64
2021/10/02 11:18:48;;;;;;;8.85;3.38;;;;;;;-144.51;100.00;69251.94;5111163;28;20499;-65
2021/10/02 11:21:32;;;;;;;10.20;3.35;;;;;;;-144.51;100.00;69251.94;5109389;28;20048;-65
2021/10/02 11:24:17;;;;;;;7.45;3.63;;;;;;;-144.51;100.00;69251.94;5114360;28;20036;-65
2021/10/02 11:27:03;;;;;;;5.65;3.33;;;;;;;-144.51;100.00;69251.94;5115794;28;20051;-65
2021/10/02 11:29:48;;;;;;;6.97;4.25;;;;;;;-144.51;100.00;69251.94;5111868;28;20079;-65
2021/10/02 11:32:37;;;;;;;6.30;4.15;;;;;;;-144.51;100.00;69251.94;5112133;28;20035;-65
2021/10/02 11:35:29;;;;;;;11.10;3.85;;;;;;;-144.51;100.00;69251.94;5120040;28;20032;-68
2021/10/02 11:38:36;;;;;;;7.57;4.32;;;;;;;-144.51;100.00;69251.94;5118528;28;20044;-68
2021/10/02 11:41:23;;;;;;;6.88;3.85;;;;;;;-144.51;100.00;69251.94;5121190;28;20036;-70
2021/10/02 11:44:08;;;;;;;9.73;5.25;;;;;;;-144.51;100.00;69251.94;5123837;28;20040;-70
2021/10/02 11:47:33;;;;;;;9.18;4.30;;;;;;;-144.51;100.00;69251.94;5123813;28;20047;-70
2021/10/02 11:50:19;;;;;;;8.73;4.97;;;;;;;-144.51;100.00;69251.94;5123645;28;20039;-69
2021/10/02 11:53:04;;;;;;;11.32;5.13;;;;;;;-144.51;100.00;69251.94;5110554;28;20040;-69
2021/10/02 11:55:50;;;;;;;10.15;4.63;;;;;;;-144.51;100.00;69251.94;5123839;28;20476;-70
2021/10/02 11:58:42;;;;;;;13.60;4.05;;;;;;;-144.51;100.00;69251.94;5120373;28;20410;-70
2021/10/02 12:01:30;;;;;;;9.95;4.82;;;;;;;-144.51;100.00;69251.94;5104775;28;20048;-70
2021/10/02 12:04:15;;;;;;;9.90;3.40;;;;;;;-144.51;100.00;69251.94;5103118;28;20044;-70
2021/10/02 12:07:00;;;;;;;12.55;3.45;;;;;;;-144.51;100.00;69251.94;5105807;28;20043;-70
2021/10/02 12:09:56;;;;;;;9.73;3.63;;;;;;;-144.51;100.00;69251.94;5114996;28;20039;-68
2021/10/02 12:12:41;;;;;;;5.85;3.17;;;;;;;-144.51;100.00;69251.94;5116738;28;20035;-69
2021/10/02 12:15:33;;;;;;;12.50;3.35;;;;;;;-144.51;100.00;69251.94;5123256;28;20039;-67
2021/10/02 12:18:17;;;;;;;9.35;4.00;;;;;;;-144.51;100.00;69251.94;5118125;28;20414;-68
2021/10/02 12:21:02;;;;;;;6.03;2.60;;;;;;;-144.51;100.00;69251.94;5119656;28;20398;-68
2021/10/02 12:23:51;;;;;;;6.05;3.53;;;;;;;-144.51;100.00;69251.94;5123189;28;20058;-68
2021/10/02 12:26:41;;;;;;;10.65;4.90;;;;;;;-144.51;100.00;69251.94;5122726;28;20044;-68
2021/10/02 12:29:35;;;;;;;9.70;5.03;;;;;;;-144.51;100.00;69251.94;5117434;28;20043;-68
2021/10/02 12:32:22;;;;;;;11.65;4.53;;;;;;;-144.51;100.00;69251.94;5108149;28;20040;-68
2021/10/02 12:35:08;;;;;;;12.38;3.67;;;;;;;-144.51;100.00;69251.94;5123019;28;20031;-68
2021/10/02 12:37:57;;;;;;;8.25;3.92;;;;;;;-144.51;100.00;69251.94;5121585;28;20040;-68
2021/10/02 12:40:52;;;;;;;8.23;3.83;;;;;;;-144.51;100.00;69251.94;5119473;28;20043;-68
2021/10/02 12:43:36;;;;;;;6.70;4.15;;;;;;;-144.51;100.00;69251.94;5121383;27;20035;-68
2021/10/02 12:46:21;;;;;;;7.55;3.80;;;;;;;-144.51;100.00;69251.94;5112068;28;20039;-66
2021/10/02 12:49:06;;;;;;;10.18;5.30;;;;;;;-144.51;100.00;69251.94;5112208;28;20039;-67
2021/10/02 12:51:53;;;;;;;8.93;4.60;;;;;;;-144.51;100.00;69251.94;5115567;28;20043;-68
2021/10/02 12:54:39;;;;;;;15.38;4.53;;;;;;;-144.51;100.00;69251.94;5120369;28;20400;-69
2021/10/02 12:57:31;;;;;;;15.95;4.45;;;;;;;-144.51;100.00;69251.94;5119718;28;20040;-64
2021/10/02 13:00:22;;;;;;;7.70;4.00;;;;;;;-144.51;100.00;69251.94;5113746;28;20027;-69
2021/10/02 13:03:09;;;;;;;6.65;4.15;;;;;;;-144.51;100.00;69251.94;5118423;28;20035;-71
2021/10/02 13:06:00;;;;;;;10.60;4.05;;;;;;;-144.51;100.00;69251.94;5116101;28;20039;-67
2021/10/02 13:08:45;;;;;;;9.30;3.15;;;;;;;-144.51;100.00;69251.94;5110707;28;20040;-65
2021/10/02 13:11:30;;;;;;;8.55;3.67;;;;;;;-144.51;100.00;69251.94;5116309;28;20032;-65
2021/10/02 13:14:35;;;;;;;7.82;4.10;;;;;;;-144.51;100.00;69251.94;5114644;28;20044;-66
2021/10/02 13:17:20;;;;;;;8.23;3.42;;;;;;;-144.51;100.00;69251.94;5118897;28;20503;-65
2021/10/02 13:20:17;;;;;;;6.75;3.92;;;;;;;-144.51;100.00;69251.94;5110367;28;20040;-67
2021/10/02 13:23:17;;;;;;;5.93;3.60;;;;;;;-144.51;100.00;69251.94;5113517;28;20499;-66
2021/10/02 13:26:05;;;;;;;9.02;3.20;;;;;;;-144.51;100.00;69251.94;5112396;28;20031;-66
2021/10/02 13:28:55;;;;;;;8.70;4.00;;;;;;;-144.51;100.00;69251.94;5115458;28;20411;-66
2021/10/02 13:31:40;;;;;;;4.25;3.00;;;;;;;-144.51;100.00;69251.94;5112417;28;20035;-66
2021/10/02 13:34:24;;;;;;;14.57;5.45;;;;;;;-144.51;100.00;69251.94;5117190;28;20031;-66
2021/10/02 13:37:09;;;;;;;11.05;3.72;;;;;;;-144.51;100.00;69251.94;5115520;28;20039;-66
2021/10/02 13:39:54;;;;;;;6.57;3.85;;;;;;;-144.51;100.00;69251.94;5110647;28;20044;-67
2021/10/02 13:42:46;;;;;;;9.88;4.10;;;;;;;-144.51;100.00;69251.94;5112769;28;20043;-66
2021/10/02 13:45:35;;;;;;;18.92;3.95;;;;;;;-144.51;100.00;69251.94;5115916;28;20028;-66